• Join FlightAware (Why Join?)
  • Login
  • US Flag 
04:24AM EDT


 

Airport Tracker/Info


-or-


 

Live Flight TrackerFlight Track Log ✈ RPA3321 ✈ 14-Aug-2013 ✈ KALB - KDCA

Flight Track Log - Related Links

Times and Time Zones

All times are in EDT time to prevent confusion due to time zone crossing. See the RPA3321 flight status page for this flight to view local times or setup timezone preferences in your user account.

Time Position Orientation Groundspeed Altitude Reporting Facility
EDT Latitude Longitude Course Direction KTS MPH feet Rate Location/Type
05:52AM 42.7653 -73.8061 118° Southeast 142 163 1,300  Level Boston Center
05:53AM 42.8006 -73.8097 356° North 176 203 2,600 2,040 Climbing Boston Center
05:54AM 42.8603 -73.8761 321° Northwest 221 254 5,700 2,400 Climbing Boston Center
05:55AM 42.4324 -74.0827 180° South  Level Estimated
05:55AM 42.8864 -73.9533 295° West 236 272 8,200  Level Boston Center
05:56AM 42.3531 -74.1524 172° South  Level Estimated
05:56AM 42.8828 -74.0664 268° West 255 293 11,100  Level Boston Center
05:57AM 42.3085 -74.0396 118° Southeast  Level FlightAware Approximate
05:57AM 42.8400 -74.1361 230° Southwest 263 303 13,300  Level Boston Center
05:58AM 42.7467 -74.1025 165° South 245 282 15,800 2,280 Climbing Boston Center
05:59AM 42.6681 -74.0608 159° South 301 346 18,000 2,100 Climbing Boston Center
06:00AM 42.5792 -74.0161 160° South 315 362 20,000 1,860 Climbing Boston Center
06:01AM 42.4858 -73.9717 161° South 346 398 21,700 1,560 Climbing Boston Center
06:02AM 42.3950 -73.9189 157° South 351 404 23,200 1,500 Climbing Boston Center
06:03AM 42.2997 -73.8717 160° South 356 410 24,700 1,380 Climbing Boston Center
06:04AM 42.2022 -73.8244 160° South 368 423 26,000 600 Climbing Boston Center
06:05AM 42.1111 -73.7778 159° South 368 423 26,000  Level Boston Center
06:06AM 42.0214 -73.7814 182° South 334 384 26,000  Level Boston Center
06:07AM 41.9417 -73.8244 202° Southwest 318 366 26,000  Level Boston Center
06:08AM 41.8558 -73.8672 200° South 318 366 26,000  Level Boston Center
06:09AM 41.7678 -73.9125 201° Southwest 323 372 26,000  Level Boston Center
06:12AM 41.5669 -74.0153 201° Southwest 327 376 26,000  Level New York Center
06:13AM 41.4844 -74.0556 200° South 315 362 26,000  Level New York Center
06:14AM 41.4042 -74.0958 201° Southwest 315 362 26,000  Level New York Center
06:15AM 41.3175 -74.1411 201° Southwest 315 362 26,000  Level New York Center
06:16AM 41.2353 -74.1811 200° South 315 362 26,000  Level New York Center
06:17AM 41.1550 -74.2156 198° South 321 369 26,000  Level New York Center
06:18AM 41.0725 -74.2583 201° Southwest 327 376 26,000  Level New York Center
06:19AM 40.9881 -74.2978 199° South 327 376 26,000  Level New York Center
06:20AM 40.9056 -74.3431 203° Southwest 327 376 26,000  Level New York Center
06:21AM 40.8208 -74.3850 201° Southwest 327 376 26,000  Level New York Center
06:22AM 40.7561 -74.4556 220° Southwest 327 376 26,000  Level New York Center
06:23AM 40.7011 -74.5486 232° Southwest 312 359 26,000  Level New York Center
06:24AM 40.6461 -74.6383 231° Southwest 318 366 26,000  Level New York Center
06:25AM 40.5911 -74.7283 231° Southwest 323 372 26,000  Level New York Center
06:26AM 40.5339 -74.8150 229° Southwest 323 372 26,000  Level New York Center
06:27AM 40.4747 -74.8989 227° Southwest 323 372 26,000  Level New York Center
06:28AM 40.4136 -74.9825 226° Southwest 323 372 26,000  Level New York Center
06:29AM 40.3519 -75.0686 227° Southwest 323 372 26,000  Level New York Center
06:30AM 40.2947 -75.1522 228° Southwest 328 377 26,000 -840 Level New York Center
06:31AM 40.2225 -75.2481 225° Southwest 334 384 24,400 -1,740 Descending New York Center
06:32AM 40.1583 -75.3392 227° Southwest 334 384 22,600 -1,260 Descending New York Center
06:33AM 40.1075 -75.4172 230° Southwest 334 384 22,000 -300 Descending New York Center
06:34AM 40.0453 -75.5161 231° Southwest 328 377 22,000  Level New York Center
06:35AM 39.9919 -75.5964 229° Southwest 323 372 22,000  Level New York Center
06:36AM 39.9294 -75.6922 230° Southwest 323 372 22,000  Level New York Center
06:37AM 39.8761 -75.7725 229° Southwest 323 372 22,000  Level New York Center
06:38AM 39.8225 -75.8578 231° Southwest 318 366 22,000 -1,020 Level New York Center
06:40AM 39.6667 -76.0833 228° Southwest 321 369 18,700 -1,500 Descending Potomac TRACON
06:41AM 39.6167 -76.1667 232° Southwest 318 366 16,900 -1,740 Descending Potomac TRACON
06:42AM 39.5667 -76.2500 232° Southwest 315 362 15,400 -1,740 Descending Potomac TRACON
06:43AM 39.5000 -76.3333 224° Southwest 309 356 13,700 -1,740 Descending Potomac TRACON
06:44AM 39.4500 -76.4000 226° Southwest 308 354 12,100 -900 Descending Potomac TRACON
06:45AM 39.3833 -76.4667 218° Southwest 311 358 12,000 -60 Descending Potomac TRACON
06:46AM 39.3167 -76.5333 218° Southwest 310 357 12,000 -360 Level Potomac TRACON
06:47AM 39.2500 -76.6000 218° Southwest 297 342 11,300 -900 Descending Potomac TRACON
06:48AM 39.1833 -76.6500 210° Southwest 273 314 10,200 -780 Descending Potomac TRACON
06:49AM 39.1333 -76.7000 218° Southwest 270 311 10,000 -120 Descending Potomac TRACON
06:50AM 39.0833 -76.7667 226° Southwest 270 311 10,000 -480 Level Potomac TRACON
06:51AM 39.0333 -76.8167 218° Southwest 264 304 9,100 -1,560 Descending Potomac TRACON
06:52AM 38.9833 -76.8833 226° Southwest 269 310 7,100 -1,680 Descending Potomac TRACON
06:52AM 38.9167 -76.9333 210° Southwest 271 312 6,000 -960 Descending Potomac TRACON
06:53AM 38.8500 -76.9500 191° South 292 336 5,300 -1,200 Descending Potomac TRACON
06:54AM 38.7667 -76.9500 180° South 286 329 3,600 -1,440 Descending Potomac TRACON
06:55AM 38.7000 -76.9833 201° Southwest 266 306 2,500 -600 Descending Potomac TRACON
06:56AM 38.7333 -77.0167 322° Northwest 180 207 2,500 -480 Level Potomac TRACON
06:57AM 38.7667 -77.0333 339° North 149 171 1,600 -960 Descending Potomac TRACON
06:58AM 38.8167 -77.0333 360° North 135 155 600 -960 Descending Potomac TRACON